Etusivu
METAR-TAF:

METAR-TAF

Lentoasemat :

Burns, Oregon, Yhdysvallat

Leveyspiiri: 43-35-42N, Pituuspiiri: 118-57-23W, korkeus merenpinnasta: 1263 m

Tämänhetkinen sää

Tämä raportti tehtiin 19 minuuttia sitten, kello 16.53 UTC
Tuuli 3 kn etelästä
Lämpötila 9°C
Kosteus 27%
Ilmanpaine 1019 hPa
Näkyvyys: 8.0 km
selkeää
usvaa

METAR: KBNO 301653Z AUTO 18003KT 5SM HZ CLR 09/M09 A3010 RMK AO2 SLP197 T00891089

Aika: 10:12 (17:12 UTC)

Sääennuste

Tämä raportti tehtiin 5 tuntia ja 41 minuuttia sitten, kello 11.31 UTC
Ennuste voimassa 30. päivästä klo 12 UTC - 31. päivään klo 12 UTC
Tuuli 3 kn eri suunnista
Näkyvyys: 10 km
selkeää
From 30. päivästä klo 1900 UTC
Tuuli 15 kn lännestä puuskistuen 25 kn:hen
Näkyvyys: 10 km
Hajonneita pilviä 12000 ft:n korkeudessa
From 31. päivästä klo 0500 UTC
Tuuli 7 kn lännestä
Näkyvyys: 10 km
selkeää

TAF: KBNO 301131Z 3012/3112 VRB03KT P6SM SKC FM301900 27015G25KT P6SM BKN120 FM310500 27007KT P6SM SKC

Säähavainnot ja -ennusteet yli 4000 lentoasemalta (METAR- ja TAF-raportit).

Käytössä olevat sääasemat on merkitty karttaan keltaisilla ja punaisilla pisteillä.

Aseta hiiri pisteen päälle nähdäksesi sääaseman nimen.

Klikkaa sitten nähdäksesi säähavainnot ja -ennusteet.

Kartan vaihtaminen: klikkaa mustalla rastilla varustettuja vihreitä pisteitä, niin voit zoomata sisään; viivalla varustettua vihreää pistettä, niin voit zoomata ulos tai vihreitä nuolia, niin pääset viereisille kartoille.


METAR-TAF: